createdAt,value
2019-03-29T00:02:31.221Z,64.40
2019-03-29T00:05:01.471Z,63.42
2019-03-29T00:07:39.875Z,65.83
2019-03-29T00:17:02.016Z,58.02
2019-03-29T00:19:36.971Z,59.30
2019-03-29T00:22:10.548Z,64.65
2019-03-29T00:24:43.047Z,60.80
2019-03-29T00:27:16.621Z,61.23
2019-03-29T00:29:45.619Z,51.75
2019-03-29T00:32:15.835Z,58.13
2019-03-29T00:34:49.849Z,56.05
2019-03-29T00:37:18.836Z,51.77
2019-03-29T00:39:49.401Z,55.50
2019-03-29T00:42:18.376Z,53.68
2019-03-29T00:44:47.403Z,52.13
2019-03-29T00:47:19.438Z,66.07
2019-03-29T00:49:48.431Z,68.50
2019-03-29T00:52:17.473Z,68.55
2019-03-29T00:54:46.777Z,60.92
2019-03-29T00:57:17.375Z,60.85
2019-03-29T00:59:47.428Z,60.55
2019-03-29T01:02:16.464Z,60.08
2019-03-29T01:04:45.720Z,59.38
2019-03-29T01:07:14.650Z,63.30
2019-03-29T01:09:50.164Z,67.35
2019-03-29T01:12:19.199Z,71.95
2019-03-29T01:14:49.780Z,72.55
2019-03-29T01:17:20.115Z,75.05
2019-03-29T01:19:49.302Z,73.87
2019-03-29T01:22:18.326Z,84.95
2019-03-29T01:24:49.983Z,74.32
2019-03-29T01:27:27.662Z,64.05
2019-03-29T01:29:58.761Z,72.12
2019-03-29T01:32:32.436Z,71.72
2019-03-29T01:35:04.757Z,69.45
2019-03-29T01:37:37.822Z,68.10
2019-03-29T01:40:12.612Z,69.42
2019-03-29T01:42:45.022Z,60.30
2019-03-29T01:45:16.338Z,68.62
2019-03-29T01:47:45.318Z,67.95
2019-03-29T01:50:14.300Z,59.20
2019-03-29T01:52:46.003Z,59.42
2019-03-29T01:55:15.383Z,69.25
2019-03-29T01:57:44.404Z,60.10
2019-03-29T02:00:14.943Z,72.92
2019-03-29T02:02:46.222Z,59.03
2019-03-29T02:05:16.014Z,59.45
2019-03-29T02:07:45.041Z,71.20
2019-03-29T02:10:17.583Z,65.40
2019-03-29T02:12:46.223Z,54.63
2019-03-29T02:15:15.341Z,66.00
2019-03-29T02:17:46.237Z,61.70
2019-03-29T02:20:15.255Z,58.15
2019-03-29T02:22:44.246Z,65.05
2019-03-29T02:25:16.001Z,61.25
2019-03-29T02:27:46.504Z,66.12
2019-03-29T02:30:18.667Z,72.47
2019-03-29T02:32:49.744Z,76.82
2019-03-29T02:35:18.757Z,82.45
2019-03-29T02:37:47.742Z,76.12
2019-03-29T02:40:16.770Z,76.97
2019-03-29T02:42:45.722Z,78.97
2019-03-29T02:45:16.354Z,81.12
2019-03-29T02:47:48.892Z,70.30
2019-03-29T02:50:17.195Z,67.25
2019-03-29T02:55:21.284Z,61.77
2019-03-29T03:04:33.167Z,56.63
2019-03-29T03:07:02.204Z,58.60
2019-03-29T03:09:31.223Z,64.95
2019-03-29T03:12:00.254Z,81.92
2019-03-29T03:14:29.223Z,62.17
2019-03-29T03:16:58.253Z,63.80
2019-03-29T03:19:28.054Z,68.52
2019-03-29T03:21:57.016Z,64.07
2019-03-29T03:24:26.006Z,64.32
2019-03-29T03:26:57.690Z,60.03
2019-03-29T03:29:26.673Z,60.65
2019-03-29T03:31:55.637Z,64.62
2019-03-29T03:34:25.747Z,61.20
2019-03-29T03:36:57.699Z,59.85
2019-03-29T03:39:31.848Z,63.75
2019-03-29T03:41:57.334Z,68.95
2019-03-29T03:44:38.656Z,77.12
2019-03-29T03:47:07.712Z,73.10
2019-03-29T03:49:36.693Z,73.80
2019-03-29T03:52:05.745Z,76.25
2019-03-29T03:54:37.569Z,63.33
2019-03-29T03:57:09.733Z,59.55
2019-03-29T03:59:40.705Z,63.85
2019-03-29T04:02:12.845Z,70.05
2019-03-29T04:04:41.937Z,63.00
2019-03-29T04:07:10.971Z,57.53
2019-03-29T04:09:49.604Z,63.25
2019-03-29T04:12:10.937Z,66.20
2019-03-29T04:14:39.876Z,68.37
2019-03-29T04:17:08.839Z,68.15
2019-03-29T04:19:37.822Z,62.70
2019-03-29T04:22:06.851Z,64.20
2019-03-29T04:24:35.857Z,62.17
2019-03-29T04:27:06.117Z,66.17
2019-03-29T04:29:38.837Z,63.17
2019-03-29T04:32:07.542Z,66.97
2019-03-29T04:34:36.567Z,61.92
2019-03-29T04:37:05.538Z,62.03
2019-03-29T04:39:36.133Z,66.12
2019-03-29T04:42:05.101Z,62.33
2019-03-29T04:44:35.580Z,57.85
2019-03-29T04:47:05.617Z,54.95
2019-03-29T04:49:34.925Z,56.80
2019-03-29T04:52:04.193Z,64.62
2019-03-29T04:54:33.313Z,67.05
2019-03-29T04:57:02.361Z,67.45
2019-03-29T04:59:35.718Z,66.82
2019-03-29T05:02:04.933Z,66.12
2019-03-29T05:04:34.245Z,63.27
2019-03-29T05:07:05.708Z,59.38
2019-03-29T05:09:34.671Z,59.15
2019-03-29T05:12:03.643Z,61.20
2019-03-29T05:14:32.635Z,68.95
2019-03-29T05:17:03.299Z,65.22
2019-03-29T05:22:03.711Z,62.15
2019-03-29T05:24:34.801Z,69.00
2019-03-29T05:27:05.360Z,61.67
2019-03-29T05:29:34.383Z,69.58
2019-03-29T05:32:06.401Z,70.03
2019-03-29T05:34:35.459Z,62.85
2019-03-29T05:37:04.471Z,68.57
2019-03-29T05:39:37.108Z,64.92
2019-03-29T05:42:08.983Z,68.05
2019-03-29T05:44:40.715Z,68.65
2019-03-29T05:47:08.659Z,74.20
2019-03-29T05:49:37.702Z,69.80
2019-03-29T05:52:06.728Z,71.42
2019-03-29T05:54:39.718Z,65.45
2019-03-29T05:57:08.682Z,67.00
2019-03-29T05:59:37.672Z,71.10
2019-03-29T06:02:06.692Z,63.83
2019-03-29T06:04:38.012Z,68.10
2019-03-29T06:07:07.026Z,67.70
2019-03-29T06:09:36.036Z,69.25
2019-03-29T06:12:05.064Z,69.20
2019-03-29T06:14:36.505Z,71.33
2019-03-29T06:17:09.122Z,64.90
2019-03-29T06:19:38.187Z,71.92
2019-03-29T06:22:07.271Z,78.57
2019-03-29T06:24:37.125Z,62.70
2019-03-29T06:29:35.513Z,72.25
2019-03-29T06:32:04.434Z,72.33
2019-03-29T06:34:33.408Z,67.08
2019-03-29T06:37:10.348Z,71.50
2019-03-29T06:39:39.896Z,69.17
2019-03-29T06:42:11.956Z,72.53
2019-03-29T06:44:44.107Z,75.85
2019-03-29T06:47:14.214Z,70.15
2019-03-29T06:49:46.399Z,76.57
2019-03-29T06:52:15.443Z,68.47
2019-03-29T06:54:44.475Z,71.55
2019-03-29T06:57:13.497Z,79.15
2019-03-29T06:59:45.362Z,88.25
2019-03-29T07:02:14.320Z,83.62
2019-03-29T07:04:44.658Z,91.17
2019-03-29T07:07:13.737Z,90.70
2019-03-29T07:09:42.707Z,97.33
2019-03-29T07:12:11.746Z,96.67
2019-03-29T07:14:40.785Z,84.45
2019-03-29T07:17:10.372Z,75.67
2019-03-29T07:19:43.647Z,92.95
2019-03-29T07:22:12.604Z,79.40
2019-03-29T07:24:41.684Z,86.50
2019-03-29T07:33:38.173Z,98.58
2019-03-29T07:36:09.931Z,87.62
2019-03-29T07:38:38.891Z,95.05
2019-03-29T07:41:08.897Z,93.35
2019-03-29T07:46:07.945Z,94.10
2019-03-29T07:48:40.225Z,99.87
2019-03-29T07:51:08.745Z,104.38
2019-03-29T07:56:09.779Z,106.32
2019-03-29T07:58:39.185Z,102.32
2019-03-29T08:01:08.493Z,115.08
2019-03-29T08:03:38.016Z,112.05
2019-03-29T08:06:08.603Z,107.07
2019-03-29T08:08:37.628Z,100.97
2019-03-29T08:13:35.907Z,110.70
2019-03-29T08:16:07.804Z,113.77
2019-03-29T08:18:40.656Z,123.53
2019-03-29T08:21:11.292Z,128.95
2019-03-29T08:23:44.423Z,126.15
2019-03-29T08:26:13.449Z,120.02
2019-03-29T08:28:42.679Z,135.68
2019-03-29T08:31:11.781Z,117.70
2019-03-29T08:33:40.986Z,131.93
2019-03-29T08:36:09.995Z,137.37
2019-03-29T08:38:38.994Z,132.52
2019-03-29T08:41:10.408Z,125.53
2019-03-29T08:43:39.387Z,136.77
2019-03-29T08:46:08.445Z,138.18
2019-03-29T08:48:37.428Z,145.30
2019-03-29T08:51:07.994Z,147.70
2019-03-29T08:53:36.997Z,147.30
2019-03-29T08:56:05.970Z,138.75
2019-03-29T08:58:34.939Z,139.65
2019-03-29T09:01:04.284Z,146.85
2019-03-29T09:03:35.326Z,145.65
2019-03-29T09:06:06.495Z,144.25
2019-03-29T09:08:35.534Z,148.38
2019-03-29T09:11:07.493Z,141.53
2019-03-29T09:13:36.462Z,139.10
2019-03-29T09:16:12.438Z,130.32
2019-03-29T09:18:41.657Z,126.60
2019-03-29T09:21:10.598Z,121.77
2019-03-29T09:23:42.747Z,121.15
2019-03-29T09:26:12.911Z,131.75
2019-03-29T09:28:41.974Z,126.57
2019-03-29T09:31:10.953Z,124.35
2019-03-29T09:33:40.145Z,120.02
2019-03-29T09:36:09.138Z,119.03
2019-03-29T09:38:38.169Z,121.77
2019-03-29T09:41:07.177Z,118.25
2019-03-29T09:43:36.145Z,117.25
2019-03-29T09:46:05.141Z,124.15
2019-03-29T09:48:37.238Z,125.72
2019-03-29T09:51:06.323Z,107.80
2019-03-29T09:53:35.363Z,108.57
2019-03-29T09:56:04.311Z,106.37
2019-03-29T09:58:44.913Z,109.12
2019-03-29T10:01:16.329Z,101.35
2019-03-29T10:03:45.591Z,97.60
2019-03-29T10:06:15.478Z,96.50
2019-03-29T10:08:49.157Z,107.70
2019-03-29T10:11:21.633Z,105.65
2019-03-29T10:13:54.449Z,107.27
2019-03-29T10:16:25.890Z,109.80
2019-03-29T10:18:54.314Z,107.45
2019-03-29T10:21:23.264Z,111.07
2019-03-29T10:23:52.373Z,108.70
2019-03-29T10:26:21.325Z,102.43
2019-03-29T10:28:50.309Z,114.22
2019-03-29T10:31:31.538Z,105.55
2019-03-29T10:33:49.952Z,97.20
2019-03-29T10:36:18.930Z,101.25
2019-03-29T10:38:52.355Z,99.05
2019-03-29T10:41:22.696Z,104.80
2019-03-29T10:43:52.219Z,96.65
2019-03-29T10:46:22.817Z,94.52
2019-03-29T10:48:51.834Z,98.52
2019-03-29T10:51:20.870Z,106.83
2019-03-29T10:53:49.893Z,101.27
2019-03-29T10:56:33.300Z,96.40
2019-03-29T10:58:56.132Z,99.17
2019-03-29T11:01:29.699Z,107.70
2019-03-29T11:03:58.712Z,98.58
2019-03-29T11:06:27.739Z,97.40
2019-03-29T11:08:56.710Z,104.45
2019-03-29T11:11:25.928Z,99.20
2019-03-29T11:13:56.685Z,97.75
2019-03-29T11:16:27.372Z,96.08
2019-03-29T11:18:57.567Z,103.60
2019-03-29T11:21:28.239Z,97.95
2019-03-29T11:23:58.269Z,93.33
2019-03-29T11:26:27.224Z,105.17
2019-03-29T11:28:57.466Z,98.03
2019-03-29T11:31:32.371Z,97.67
2019-03-29T11:34:01.387Z,94.55
2019-03-29T11:36:30.406Z,95.70
2019-03-29T11:39:01.823Z,96.70
2019-03-29T11:41:32.466Z,92.57
2019-03-29T11:44:01.512Z,100.70
2019-03-29T11:46:30.439Z,107.10
2019-03-29T11:48:59.424Z,103.55
2019-03-29T11:51:30.019Z,98.45
2019-03-29T11:54:01.300Z,101.70
2019-03-29T11:56:30.282Z,102.90
2019-03-29T11:59:05.828Z,105.40
2019-03-29T12:01:29.955Z,104.45
2019-03-29T12:03:58.935Z,110.70
2019-03-29T12:06:29.597Z,97.47
2019-03-29T12:08:58.531Z,101.67
2019-03-29T12:11:29.133Z,100.33
2019-03-29T12:13:58.057Z,108.37
2019-03-29T12:16:27.007Z,104.47
2019-03-29T12:18:56.159Z,101.40
2019-03-29T12:21:25.200Z,99.67
2019-03-29T12:23:57.113Z,93.17
2019-03-29T12:26:26.118Z,100.37
2019-03-29T12:28:55.135Z,100.73
2019-03-29T12:31:24.215Z,97.53
2019-03-29T12:33:53.183Z,99.05
2019-03-29T12:36:22.161Z,97.23
2019-03-29T12:38:51.293Z,99.05
2019-03-29T12:41:20.377Z,95.13
2019-03-29T12:43:55.859Z,88.80
2019-03-29T12:46:22.981Z,94.17
2019-03-29T12:48:56.407Z,92.88
2019-03-29T12:51:23.725Z,89.95
2019-03-29T12:53:52.787Z,91.90
2019-03-29T12:56:24.547Z,96.67
2019-03-29T12:58:53.757Z,96.53
2019-03-29T13:01:22.781Z,96.50
2019-03-29T13:03:51.770Z,94.67
2019-03-29T13:06:23.484Z,99.67
2019-03-29T13:08:52.437Z,95.67
2019-03-29T13:11:21.392Z,99.10
2019-03-29T13:14:09.626Z,102.23
2019-03-29T13:16:30.781Z,96.30
2019-03-29T13:18:59.764Z,92.92
2019-03-29T13:21:28.870Z,97.10
2019-03-29T13:23:59.582Z,95.95
2019-03-29T13:26:28.699Z,95.75
2019-03-29T13:28:57.655Z,96.80
2019-03-29T13:31:29.530Z,101.60
2019-03-29T13:33:58.737Z,90.55
2019-03-29T13:36:27.772Z,90.95
2019-03-29T13:38:59.032Z,98.90
2019-03-29T13:41:27.377Z,92.33
2019-03-29T13:43:58.830Z,97.40
2019-03-29T13:46:28.025Z,90.95
2019-03-29T13:48:59.388Z,89.28
2019-03-29T13:51:28.502Z,92.67
2019-03-29T13:53:57.519Z,94.10
2019-03-29T13:56:29.274Z,92.40
2019-03-29T13:59:01.828Z,88.62
2019-03-29T14:01:30.862Z,85.15
2019-03-29T14:03:59.839Z,86.85
2019-03-29T14:06:30.552Z,94.55
2019-03-29T14:08:59.522Z,91.35
2019-03-29T14:11:30.340Z,85.83
2019-03-29T14:14:02.295Z,86.47
2019-03-29T14:16:33.277Z,82.45
2019-03-29T14:19:01.979Z,85.35
2019-03-29T14:21:31.756Z,83.40
2019-03-29T14:24:00.741Z,88.33
2019-03-29T14:26:29.802Z,87.75
2019-03-29T14:29:01.271Z,89.37
2019-03-29T14:31:31.780Z,81.80
2019-03-29T14:34:03.906Z,84.67
2019-03-29T14:36:34.696Z,76.77
2019-03-29T14:39:06.913Z,81.35
2019-03-29T14:41:37.502Z,85.32
2019-03-29T14:44:09.320Z,82.60
2019-03-29T14:46:40.120Z,80.17
2019-03-29T14:49:11.253Z,77.85
2019-03-29T14:51:41.425Z,76.57
2019-03-29T14:54:10.435Z,84.10
2019-03-29T14:56:42.009Z,79.82
2019-03-29T14:59:12.713Z,78.40
2019-03-29T15:01:42.016Z,76.63
2019-03-29T15:04:11.009Z,76.95
2019-03-29T15:06:40.032Z,75.37
2019-03-29T15:09:10.639Z,75.75
2019-03-29T15:11:39.674Z,73.83
2019-03-29T15:14:08.715Z,71.10
2019-03-29T15:16:37.717Z,73.83
2019-03-29T15:19:06.789Z,74.03
2019-03-29T15:21:37.994Z,73.10
2019-03-29T15:24:16.971Z,71.00
2019-03-29T15:26:50.459Z,73.25
2019-03-29T15:29:19.437Z,72.40
2019-03-29T15:31:50.726Z,71.55
2019-03-29T15:34:19.065Z,71.40
2019-03-29T15:36:48.057Z,75.22
2019-03-29T15:39:20.097Z,72.75
2019-03-29T15:41:49.065Z,68.22
2019-03-29T15:44:18.040Z,75.15
2019-03-29T15:46:48.927Z,72.73
2019-03-29T15:49:17.661Z,73.65
2019-03-29T15:51:46.784Z,68.23
2019-03-29T15:59:18.559Z,68.05
2019-03-29T16:02:06.976Z,70.08
2019-03-29T16:04:35.958Z,68.25
2019-03-29T16:07:11.398Z,61.92
2019-03-29T16:09:40.447Z,67.53
2019-03-29T16:12:09.454Z,70.17
2019-03-29T16:14:40.122Z,73.12
2019-03-29T16:17:12.810Z,69.05
2019-03-29T16:19:41.526Z,66.87
2019-03-29T16:22:10.486Z,70.57
2019-03-29T16:24:39.490Z,71.57
2019-03-29T16:27:10.330Z,73.12
2019-03-29T16:29:44.622Z,70.80
2019-03-29T16:32:13.579Z,68.35
2019-03-29T16:34:44.647Z,69.27
2019-03-29T16:37:16.007Z,65.52
2019-03-29T16:39:45.000Z,76.65
2019-03-29T16:42:13.971Z,76.50
2019-03-29T16:44:42.950Z,72.85
2019-03-29T16:47:14.686Z,74.67
2019-03-29T16:49:47.082Z,73.87
2019-03-29T16:52:16.173Z,73.75
2019-03-29T16:54:45.105Z,74.90
2019-03-29T16:57:14.606Z,75.05
2019-03-29T16:59:43.677Z,79.30
2019-03-29T17:02:12.705Z,76.25
2019-03-29T17:04:45.245Z,77.10
2019-03-29T17:07:15.286Z,79.75
2019-03-29T17:09:47.158Z,77.45
2019-03-29T17:12:16.317Z,78.75
2019-03-29T17:14:45.367Z,84.30
2019-03-29T17:17:14.410Z,83.47
2019-03-29T17:19:45.880Z,83.73
2019-03-29T17:22:21.981Z,75.87
2019-03-29T17:24:56.873Z,73.97
2019-03-29T17:27:22.799Z,77.47
2019-03-29T17:29:55.737Z,77.70
2019-03-29T17:32:24.784Z,77.62
2019-03-29T17:34:53.891Z,77.75
2019-03-29T17:37:22.815Z,80.90
2019-03-29T17:39:51.853Z,76.70
2019-03-29T17:42:21.267Z,75.22
2019-03-29T17:44:50.295Z,73.40
2019-03-29T17:47:19.287Z,77.07
2019-03-29T17:49:49.961Z,74.10
2019-03-29T17:52:23.538Z,76.10
2019-03-29T17:54:54.117Z,70.52
2019-03-29T17:57:23.170Z,75.20
2019-03-29T17:59:52.113Z,79.50
2019-03-29T18:04:50.259Z,73.55
2019-03-29T18:07:19.241Z,77.10
2019-03-29T18:09:48.236Z,78.33
2019-03-29T18:12:20.208Z,75.50
2019-03-29T18:14:49.221Z,75.28
2019-03-29T18:17:24.275Z,75.52
2019-03-29T18:19:56.280Z,76.65
2019-03-29T18:22:25.256Z,75.37
2019-03-29T18:24:54.294Z,78.65
2019-03-29T18:27:24.994Z,75.30
2019-03-29T18:29:56.279Z,73.33
2019-03-29T18:32:25.642Z,78.60
2019-03-29T18:37:29.157Z,74.25
2019-03-29T18:39:59.776Z,77.82
2019-03-29T18:42:28.914Z,76.25
2019-03-29T18:49:00.798Z,74.60
2019-03-29T18:51:35.178Z,77.85
2019-03-29T18:54:04.216Z,81.15
2019-03-29T18:56:36.801Z,73.73
2019-03-29T18:59:05.888Z,76.50
2019-03-29T19:01:34.903Z,73.02
2019-03-29T19:04:06.955Z,78.73
2019-03-29T19:06:37.056Z,78.00
2019-03-29T19:09:06.026Z,70.52
2019-03-29T19:11:37.785Z,68.97
2019-03-29T19:14:12.920Z,73.42
2019-03-29T19:16:57.931Z,70.80
2019-03-29T19:19:14.170Z,75.03
2019-03-29T19:21:45.243Z,69.53
2019-03-29T19:24:14.229Z,76.10
2019-03-29T19:29:12.397Z,71.95
2019-03-29T19:31:44.958Z,70.45
2019-03-29T19:34:19.943Z,73.17
2019-03-29T19:36:50.511Z,73.92
2019-03-29T19:39:19.526Z,76.20
2019-03-29T19:41:54.268Z,72.58
2019-03-29T19:44:29.519Z,68.83
2019-03-29T19:47:12.539Z,76.10
2019-03-29T19:49:30.669Z,76.17
2019-03-29T19:51:59.673Z,76.55
2019-03-29T19:54:28.745Z,75.52
2019-03-29T19:56:57.883Z,73.07
2019-03-29T19:59:26.865Z,75.00
2019-03-29T20:01:55.935Z,70.72
2019-03-29T20:04:29.407Z,74.97
2019-03-29T20:06:58.394Z,72.47
2019-03-29T20:09:33.543Z,77.42
2019-03-29T20:12:02.517Z,73.15
2019-03-29T20:14:32.287Z,77.72
2019-03-29T20:17:02.961Z,82.67
2019-03-29T20:19:34.900Z,77.32
2019-03-29T20:22:06.251Z,79.65
2019-03-29T20:24:35.237Z,74.25
2019-03-29T20:27:04.207Z,83.22
2019-03-29T20:29:34.050Z,79.37
2019-03-29T20:32:03.095Z,86.65
2019-03-29T20:34:32.436Z,85.20
2019-03-29T20:37:04.279Z,85.32
2019-03-29T20:39:32.349Z,84.62
2019-03-29T20:42:03.591Z,87.35
2019-03-29T20:44:32.614Z,91.67
2019-03-29T20:47:01.695Z,91.32
2019-03-29T20:49:34.788Z,92.97
2019-03-29T20:52:05.578Z,94.70
2019-03-29T20:54:44.527Z,92.62
2019-03-29T20:57:10.567Z,105.05
2019-03-29T20:59:39.579Z,104.85
2019-03-29T21:02:08.602Z,104.05
2019-03-29T21:04:40.414Z,106.75
2019-03-29T21:07:10.913Z,105.30
2019-03-29T21:09:44.148Z,104.12
2019-03-29T21:12:14.776Z,104.92
2019-03-29T21:14:49.327Z,101.22
2019-03-29T21:17:18.395Z,109.80
2019-03-29T21:19:50.938Z,104.20
2019-03-29T21:22:19.907Z,108.78
2019-03-29T21:24:51.636Z,112.50
2019-03-29T21:27:23.896Z,105.95
2019-03-29T21:29:59.237Z,111.20
2019-03-29T21:32:29.842Z,109.57
2019-03-29T21:34:58.940Z,111.95
2019-03-29T21:37:27.950Z,107.70
2019-03-29T21:39:56.990Z,119.45
2019-03-29T21:42:31.298Z,107.73
2019-03-29T21:45:00.395Z,109.72
2019-03-29T21:47:35.206Z,104.40
2019-03-29T21:50:14.762Z,113.80
2019-03-29T21:52:43.752Z,116.20
2019-03-29T21:55:12.779Z,119.55
2019-03-29T21:57:41.906Z,113.20
2019-03-29T22:00:11.544Z,117.73
2019-03-29T22:02:42.707Z,118.67
2019-03-29T22:05:11.741Z,120.00
2019-03-29T22:07:43.274Z,112.88
2019-03-29T22:10:12.420Z,116.88
2019-03-29T22:12:43.082Z,124.33
2019-03-29T22:15:14.061Z,115.72
2019-03-29T22:17:43.086Z,118.35
2019-03-29T22:20:12.684Z,114.57
2019-03-29T22:22:41.696Z,119.50
2019-03-29T22:25:10.718Z,124.27
2019-03-29T22:27:39.834Z,118.13
2019-03-29T22:30:09.839Z,121.77
2019-03-29T22:32:39.883Z,123.87
2019-03-29T22:35:09.419Z,120.57
2019-03-29T22:37:40.763Z,118.72
2019-03-29T22:40:09.826Z,124.38
2019-03-29T22:42:38.796Z,121.90
2019-03-29T22:45:08.142Z,124.80
2019-03-29T22:47:39.861Z,126.38
2019-03-29T22:50:08.245Z,125.55
2019-03-29T22:52:40.135Z,125.95
2019-03-29T22:55:10.589Z,130.65
2019-03-29T22:57:41.224Z,127.82
2019-03-29T23:00:17.507Z,121.72
2019-03-29T23:02:48.215Z,125.35
2019-03-29T23:05:22.871Z,124.82
2019-03-29T23:07:51.870Z,122.85
2019-03-29T23:10:20.886Z,127.82
2019-03-29T23:12:52.534Z,122.30
2019-03-29T23:15:28.930Z,124.20
2019-03-29T23:17:57.980Z,122.62
2019-03-29T23:20:27.082Z,130.95
2019-03-29T23:22:56.573Z,134.18
2019-03-29T23:25:28.063Z,127.80
2019-03-29T23:27:58.719Z,132.63
2019-03-29T23:30:49.875Z,125.62
2019-03-29T23:33:23.646Z,122.70
2019-03-29T23:35:52.715Z,130.22
2019-03-29T23:38:21.746Z,130.73
2019-03-29T23:40:53.530Z,120.72
2019-03-29T23:43:22.574Z,134.55
2019-03-29T23:45:53.942Z,119.85
2019-03-29T23:48:22.928Z,132.27
2019-03-29T23:50:51.899Z,122.40
2019-03-29T23:53:23.486Z,126.95
2019-03-29T23:55:52.526Z,132.93
2019-03-29T23:58:21.519Z,123.28
